Bookmark and Share
Track history (hours):
 

MiSS Stacie

More information available from US FCC via Universal Licensing System and Coast Guard Vessel Documentation Center.

Last reported at 2014-Apr-17 10:04 UTC. Time now 2014-Apr-18 13:15 UTC.
Position N 29°47' W 090°04'.

Length 20 m; draft 2 m.

Type: Tug. MMSI: 367468640.

NotesDate/timePositionNaut miles runAvg speedWind from/ knotsBaromVisibWave heightAir tempDewpointWater temp
2014-Apr-17 10:04N 29°47' W 090°04'0 0.0
2014-Apr-17 08:32N 29°47' W 090°04'0 0.0
2014-Apr-17 07:06N 29°47' W 090°04'0 0.0
2014-Apr-17 06:33N 29°47' W 090°04'  
2014-Apr-10 12:30N 29°33' W 090°45'5 5.1
2014-Apr-10 11:33N 29°32' W 090°51'6 6.4
2014-Apr-10 10:33N 29°35' W 090°57'6 5.6
2014-Apr-10 09:33N 29°37' W 091°03'4 4.4
2014-Apr-10 08:33N 29°39' W 091°08'4 3.9
2014-Apr-10 07:33N 29°41' W 091°11'2 2.4
2014-Apr-10 06:33N 29°40' W 091°14'2 2.2
2014-Apr-10 05:33N 29°39' W 091°16'6 5.8
2014-Apr-10 04:33N 29°39' W 091°23'5 4.8
2014-Apr-10 03:29N 29°41' W 091°28'5 5.5
2014-Apr-10 02:32N 29°44' W 091°33'15 3.1
2014-Apr-09 21:33N 29°39' W 091°17'3 2.6
2014-Apr-09 20:33N 29°40' W 091°14'0 0.0
2014-Apr-09 19:33N 29°40' W 091°14'0 0.0
2014-Apr-09 18:33N 29°40' W 091°14'0 0.0
2014-Apr-09 17:33N 29°40' W 091°14'0 0.0
2014-Apr-09 16:33N 29°40' W 091°14'0 0.0
2014-Apr-09 15:34N 29°40' W 091°14'0 0.0
2014-Apr-09 14:33N 29°40' W 091°14'0 0.0
2014-Apr-09 13:33N 29°40' W 091°14'0 0.0
2014-Apr-09 12:33N 29°40' W 091°14'0 0.0
2014-Apr-09 11:33N 29°40' W 091°14'0 0.0
2014-Apr-09 10:33N 29°40' W 091°14'0 0.0
2014-Apr-09 09:33N 29°40' W 091°14'0 0.0
2014-Apr-09 08:33N 29°40' W 091°14'3 2.9
2014-Apr-09 07:33N 29°39' W 091°17'4 4.5
2014-Apr-09 06:33N 29°39' W 091°22'5 5.2
2014-Apr-09 05:33N 29°41' W 091°28'5 5.4
2014-Apr-09 04:33N 29°43' W 091°33'12 1.7
2014-Apr-08 21:29N 29°38' W 091°21'6 6.5
2014-Apr-08 20:33N 29°40' W 091°14'3 2.8
2014-Apr-08 19:33N 29°41' W 091°11'1 0.8
2014-Apr-08 18:33N 29°41' W 091°10'3 2.9
2014-Apr-08 17:33N 29°39' W 091°07'6 6.1
2014-Apr-08 16:32N 29°37' W 091°01'  

Dump ship's entire track history

sailing weather and tide predictions

MiSS Stacie — WDF5915 — position and weather